3WI3 weather

Plover River Airfield
Bevent, Wisconsin, United States

Public forecast

Using degrees Fahrenheit for public forecast. Weather courtesy of forecast.io.

METAR (pilot weather report)

Closest report is Central Wisconsin Airport, 11.1 nm (20.5 km) W. Retrieved 2019/08/20 13:48 UTC (1 hour ago):

KCWA 201348Z 16004KT 10SM SCT140 17/17 A3004

TAF (pilot weather forecast)

Closest forecast is Central Wisconsin Airport, 11.1 nm (20.5 km) W. Retrieved 2019/08/20 12:22 UTC (3 hours ago):

TAF KCWA 201120Z 2012/2112 11003KT 4SM BR SKC FM201500 19007KT P6SM SCT120 FM201900 22010G17KT P6SM VCSH SCT045 BKN120 PROB30 2023/2102 5SM -TSRA BR BKN030CB FM210200 32003KT 6SM BR VCSH BKN030 FM210500 33005KT P6SM SCT060 FM210800 35005KT 5SM BR SCT027